Terminal Aerodrome Forecast
Issued by NWS Cleveland, OH

Home | Current Version | Previous Version | Graphics & Text | Print | Product List | Glossary Off
Versions: 1 2 3 4 5 6 7 8 9 10 11 12 13 14

000
FTUS41 KCLE 021823 AAA
TAFMFD
TAF AMD
KMFD 021823Z 0218/0318 24008KT P6SM VCTS SCT050CB BKN100
      TEMPO 0218/0219 VRB15G25KT 4SM TSRA BKN050CB
     FM022100 24005KT P6SM SCT050
     FM030400 24005KT P6SM SCT250
      TEMPO 0311/0313 5SM BR
     FM031400 32008KT P6SM SCT060 BKN150=

USA.gov is the U.S. government's official web portal to all federal, state and local government web resources and services.